sensor_id;sensor_type;location;lat;lon;timestamp;pressure;altitude;pressure_sealevel;temperature;humidity
47785;BME280;35233;55.686;37.848;2022-10-16T00:01:18;101047.88;;;15.02;53.47
47785;BME280;35233;55.686;37.848;2022-10-16T00:03:45;101044.34;;;15.02;53.38
47785;BME280;35233;55.686;37.848;2022-10-16T00:06:11;101047.91;;;15.01;53.53
47785;BME280;35233;55.686;37.848;2022-10-16T00:08:37;101051.41;;;15.03;53.46
47785;BME280;35233;55.686;37.848;2022-10-16T00:11:12;101014.75;;;14.78;53.39
47785;BME280;35233;55.686;37.848;2022-10-16T00:13:39;101056.72;;;15.03;53.63
47785;BME280;35233;55.686;37.848;2022-10-16T00:16:05;101048.03;;;14.96;53.38
47785;BME280;35233;55.686;37.848;2022-10-16T00:18:31;101055.06;;;14.99;53.41
47785;BME280;35233;55.686;37.848;2022-10-16T00:21:03;101057.69;;;15.00;53.38
47785;BME280;35233;55.686;37.848;2022-10-16T00:23:29;101056.03;;;14.94;53.39
47785;BME280;35233;55.686;37.848;2022-10-16T00:25:58;101065.66;;;15.00;53.55
47785;BME280;35233;55.686;37.848;2022-10-16T00:28:25;101059.56;;;14.95;53.55
47785;BME280;35233;55.686;37.848;2022-10-16T00:30:51;101065.72;;;14.97;53.52
47785;BME280;35233;55.686;37.848;2022-10-16T00:33:16;101063.94;;;14.98;53.56
47785;BME280;35233;55.686;37.848;2022-10-16T00:35:42;101059.53;;;14.97;53.31
47785;BME280;35233;55.686;37.848;2022-10-16T00:38:08;101070.22;;;14.95;53.44
47785;BME280;35233;55.686;37.848;2022-10-16T00:40:34;101072.84;;;14.97;53.43
47785;BME280;35233;55.686;37.848;2022-10-16T00:42:59;101068.53;;;14.92;53.57
47785;BME280;35233;55.686;37.848;2022-10-16T00:45:25;101079.09;;;14.96;53.33
47785;BME280;35233;55.686;37.848;2022-10-16T00:47:52;101072.00;;;14.94;53.69
47785;BME280;35233;55.686;37.848;2022-10-16T00:50:27;101078.25;;;14.93;53.46
47785;BME280;35233;55.686;37.848;2022-10-16T00:52:54;101075.59;;;14.93;53.59
47785;BME280;35233;55.686;37.848;2022-10-16T00:55:21;101067.63;;;14.92;53.34
47785;BME280;35233;55.686;37.848;2022-10-16T00:57:48;101072.13;;;14.90;53.42
47785;BME280;35233;55.686;37.848;2022-10-16T01:00:17;101069.47;;;14.90;53.56
47785;BME280;35233;55.686;37.848;2022-10-16T01:02:42;101074.78;;;14.90;53.55
47785;BME280;35233;55.686;37.848;2022-10-16T01:05:08;101084.59;;;14.86;53.44
47785;BME280;35233;55.686;37.848;2022-10-16T01:07:43;101090.78;;;14.88;53.52
47785;BME280;35233;55.686;37.848;2022-10-16T01:16:05;101090.91;;;14.84;53.63
47785;BME280;35233;55.686;37.848;2022-10-16T01:18:37;101087.38;;;14.82;53.70
47785;BME280;35233;55.686;37.848;2022-10-16T01:21:08;101090.00;;;14.83;53.37
47785;BME280;35233;55.686;37.848;2022-10-16T01:29:20;101086.53;;;14.81;53.55
47785;BME280;35233;55.686;37.848;2022-10-16T01:31:53;101085.66;;;14.79;53.50
47785;BME280;35233;55.686;37.848;2022-10-16T01:34:33;101095.44;;;14.79;53.49
47785;BME280;35233;55.686;37.848;2022-10-16T01:37:20;101097.22;;;14.78;53.58
47785;BME280;35233;55.686;37.848;2022-10-16T01:39:48;101100.78;;;14.77;53.50
47785;BME280;35233;55.686;37.848;2022-10-16T01:42:22;101100.78;;;14.77;53.63
47785;BME280;35233;55.686;37.848;2022-10-16T01:44:51;101101.69;;;14.76;53.43
47785;BME280;35233;55.686;37.848;2022-10-16T01:47:20;101096.44;;;14.73;53.39
47785;BME280;35233;55.686;37.848;2022-10-16T01:49:47;101098.19;;;14.74;53.51
47785;BME280;35233;55.686;37.848;2022-10-16T01:52:17;101101.78;;;14.73;53.58
47785;BME280;35233;55.686;37.848;2022-10-16T01:54:47;101096.44;;;14.73;53.47
47785;BME280;35233;55.686;37.848;2022-10-16T01:57:15;101101.78;;;14.73;53.49
47785;BME280;35233;55.686;37.848;2022-10-16T01:59:46;101104.38;;;14.75;53.49
47785;BME280;35233;55.686;37.848;2022-10-16T02:02:13;101105.31;;;14.74;53.45
47785;BME280;35233;55.686;37.848;2022-10-16T02:04:49;101107.09;;;14.73;53.40
47785;BME280;35233;55.686;37.848;2022-10-16T02:07:18;101101.84;;;14.70;53.48
47785;BME280;35233;55.686;37.848;2022-10-16T02:09:44;101113.34;;;14.72;53.56
47785;BME280;35233;55.686;37.848;2022-10-16T02:12:28;101106.22;;;14.73;53.50
47785;BME280;35233;55.686;37.848;2022-10-16T02:14:56;101108.00;;;14.72;53.55
47785;BME280;35233;55.686;37.848;2022-10-16T02:17:21;101104.50;;;14.70;53.40
47785;BME280;35233;55.686;37.848;2022-10-16T02:19:48;101108.97;;;14.68;53.59
47785;BME280;35233;55.686;37.848;2022-10-16T02:22:28;101103.69;;;14.66;53.59
47785;BME280;35233;55.686;37.848;2022-10-16T02:25:15;101113.41;;;14.67;53.61
47785;BME280;35233;55.686;37.848;2022-10-16T02:32:44;101126.78;;;14.64;53.69
47785;BME280;35233;55.686;37.848;2022-10-16T02:35:11;101110.03;;;14.61;53.51
47785;BME280;35233;55.686;37.848;2022-10-16T02:37:38;101126.81;;;14.63;53.61
47785;BME280;35233;55.686;37.848;2022-10-16T02:40:06;101119.75;;;14.62;53.55
47785;BME280;35233;55.686;37.848;2022-10-16T02:42:37;101117.13;;;14.60;53.58
47785;BME280;35233;55.686;37.848;2022-10-16T02:45:04;101114.56;;;14.56;53.69
47785;BME280;35233;55.686;37.848;2022-10-16T02:47:30;101122.44;;;14.60;53.52
47785;BME280;35233;55.686;37.848;2022-10-16T02:49:55;101115.41;;;14.58;53.41
47785;BME280;35233;55.686;37.848;2022-10-16T02:52:21;101117.22;;;14.56;53.67
47785;BME280;35233;55.686;37.848;2022-10-16T02:54:46;101118.94;;;14.58;53.52
47785;BME280;35233;55.686;37.848;2022-10-16T02:57:12;101126.06;;;14.56;53.53
47785;BME280;35233;55.686;37.848;2022-10-16T02:59:37;101114.63;;;14.53;53.50
47785;BME280;35233;55.686;37.848;2022-10-16T03:02:03;101129.59;;;14.57;53.62
47785;BME280;35233;55.686;37.848;2022-10-16T03:04:29;101126.13;;;14.55;53.65
47785;BME280;35233;55.686;37.848;2022-10-16T03:06:54;101135.84;;;14.56;53.78
47785;BME280;35233;55.686;37.848;2022-10-16T03:09:20;101133.19;;;14.54;53.51
47785;BME280;35233;55.686;37.848;2022-10-16T03:11:45;101123.56;;;14.47;53.62
47785;BME280;35233;55.686;37.848;2022-10-16T03:14:11;101126.16;;;14.50;53.50
47785;BME280;35233;55.686;37.848;2022-10-16T03:16:36;101130.63;;;14.49;53.51
47785;BME280;35233;55.686;37.848;2022-10-16T03:19:02;101141.25;;;14.49;53.66
47785;BME280;35233;55.686;37.848;2022-10-16T03:21:27;101146.56;;;14.49;53.66
47785;BME280;35233;55.686;37.848;2022-10-16T03:23:53;101139.47;;;14.50;53.47
47785;BME280;35233;55.686;37.848;2022-10-16T03:26:18;101134.16;;;14.48;53.50
47785;BME280;35233;55.686;37.848;2022-10-16T03:28:44;101136.06;;;14.43;53.69
47785;BME280;35233;55.686;37.848;2022-10-16T03:31:09;101142.25;;;14.44;53.72
47785;BME280;35233;55.686;37.848;2022-10-16T03:33:35;101138.66;;;14.45;53.53
47785;BME280;35233;55.686;37.848;2022-10-16T03:36:00;101142.19;;;14.45;53.54
47785;BME280;35233;55.686;37.848;2022-10-16T03:38:26;101141.38;;;14.43;53.58
47785;BME280;35233;55.686;37.848;2022-10-16T03:40:51;101137.00;;;14.39;53.59
47785;BME280;35233;55.686;37.848;2022-10-16T03:43:17;101136.25;;;14.34;53.58
47785;BME280;35233;55.686;37.848;2022-10-16T03:45:42;101146.72;;;14.42;53.58
47785;BME280;35233;55.686;37.848;2022-10-16T03:48:08;101146.78;;;14.39;53.57
47785;BME280;35233;55.686;37.848;2022-10-16T03:50:33;101144.25;;;14.33;53.75
47785;BME280;35233;55.686;37.848;2022-10-16T03:52:59;101140.72;;;14.31;53.62
47785;BME280;35233;55.686;37.848;2022-10-16T03:55:24;101141.66;;;14.28;53.64
47785;BME280;35233;55.686;37.848;2022-10-16T03:57:50;101141.66;;;14.28;53.73
47785;BME280;35233;55.686;37.848;2022-10-16T04:00:15;101150.50;;;14.30;53.77
47785;BME280;35233;55.686;37.848;2022-10-16T04:02:41;101147.94;;;14.25;53.67
47785;BME280;35233;55.686;37.848;2022-10-16T04:05:07;101149.69;;;14.26;53.63
47785;BME280;35233;55.686;37.848;2022-10-16T04:07:32;101152.34;;;14.26;53.61
47785;BME280;35233;55.686;37.848;2022-10-16T04:09:58;101150.59;;;14.25;53.48
47785;BME280;35233;55.686;37.848;2022-10-16T04:12:25;101142.69;;;14.21;53.38
47785;BME280;35233;55.686;37.848;2022-10-16T04:14:51;101156.78;;;14.26;53.47
47785;BME280;35233;55.686;37.848;2022-10-16T04:17:16;101150.63;;;14.24;53.31
47785;BME280;35233;55.686;37.848;2022-10-16T04:19:42;101148.75;;;14.27;53.37
47785;BME280;35233;55.686;37.848;2022-10-16T04:22:07;101149.69;;;14.26;53.22
47785;BME280;35233;55.686;37.848;2022-10-16T04:24:33;101148.81;;;14.26;53.27
47785;BME280;35233;55.686;37.848;2022-10-16T04:26:58;101139.97;;;14.24;53.09
47785;BME280;35233;55.686;37.848;2022-10-16T04:29:24;101147.88;;;14.29;53.18
47785;BME280;35233;55.686;37.848;2022-10-16T04:31:50;101152.28;;;14.31;52.98
47785;BME280;35233;55.686;37.848;2022-10-16T04:34:15;101152.28;;;14.30;53.12
47785;BME280;35233;55.686;37.848;2022-10-16T04:36:41;101147.78;;;14.33;52.99
47785;BME280;35233;55.686;37.848;2022-10-16T04:39:06;101147.75;;;14.35;52.93
47785;BME280;35233;55.686;37.848;2022-10-16T04:41:32;101158.25;;;14.41;52.79
47785;BME280;35233;55.686;37.848;2022-10-16T04:43:57;101163.53;;;14.42;52.56
47785;BME280;35233;55.686;37.848;2022-10-16T04:46:22;101152.16;;;14.36;52.64
47785;BME280;35233;55.686;37.848;2022-10-16T04:48:48;101162.59;;;14.45;52.50
47785;BME280;35233;55.686;37.848;2022-10-16T04:51:13;101157.28;;;14.45;52.54
47785;BME280;35233;55.686;37.848;2022-10-16T04:53:39;101160.81;;;14.47;52.38
47785;BME280;35233;55.686;37.848;2022-10-16T04:56:05;101166.06;;;14.50;52.49
47785;BME280;35233;55.686;37.848;2022-10-16T04:58:30;101172.22;;;14.54;52.12
47785;BME280;35233;55.686;37.848;2022-10-16T05:00:56;101173.00;;;14.57;52.04
47785;BME280;35233;55.686;37.848;2022-10-16T05:03:21;101162.38;;;14.59;52.08
47785;BME280;35233;55.686;37.848;2022-10-16T05:05:47;101165.88;;;14.61;51.99
47785;BME280;35233;55.686;37.848;2022-10-16T05:08:14;101167.59;;;14.63;51.84
47785;BME280;35233;55.686;37.848;2022-10-16T05:10:41;101162.16;;;14.68;51.80
47785;BME280;35233;55.686;37.848;2022-10-16T05:13:08;101171.00;;;14.70;51.74
47785;BME280;35233;55.686;37.848;2022-10-16T05:15:33;101165.63;;;14.73;51.54
47785;BME280;35233;55.686;37.848;2022-10-16T05:17:59;101172.66;;;14.74;51.55
47785;BME280;35233;55.686;37.848;2022-10-16T05:20:24;101172.53;;;14.80;51.38
47785;BME280;35233;55.686;37.848;2022-10-16T05:22:50;101168.94;;;14.83;51.18
47785;BME280;35233;55.686;37.848;2022-10-16T05:25:16;101168.84;;;14.87;51.03
47785;BME280;35233;55.686;37.848;2022-10-16T05:27:41;101174.03;;;14.93;50.87
47785;BME280;35233;55.686;37.848;2022-10-16T05:30:07;101183.69;;;14.99;50.84
47785;BME280;35233;55.686;37.848;2022-10-16T05:32:33;101179.94;;;15.06;50.62
47785;BME280;35233;55.686;37.848;2022-10-16T05:34:58;101179.78;;;15.15;50.43
47785;BME280;35233;55.686;37.848;2022-10-16T05:37:25;101184.94;;;15.22;50.30
47785;BME280;35233;55.686;37.848;2022-10-16T05:39:52;101176.19;;;15.16;50.41
47785;BME280;35233;55.686;37.848;2022-10-16T05:42:17;101192.88;;;15.23;50.46
47785;BME280;35233;55.686;37.848;2022-10-16T05:44:44;101189.13;;;15.33;50.12
47785;BME280;35233;55.686;37.848;2022-10-16T05:47:09;101181.78;;;15.42;50.03
47785;BME280;35233;55.686;37.848;2022-10-16T05:49:36;101185.00;;;15.56;49.45
47785;BME280;35233;55.686;37.848;2022-10-16T05:52:01;101187.66;;;15.57;49.31
47785;BME280;35233;55.686;37.848;2022-10-16T05:54:27;101191.41;;;15.49;49.74
47785;BME280;35233;55.686;37.848;2022-10-16T05:56:52;101191.47;;;15.46;49.92
47785;BME280;35233;55.686;37.848;2022-10-16T05:59:18;101194.16;;;15.46;49.69
47785;BME280;35233;55.686;37.848;2022-10-16T06:01:43;101195.00;;;15.46;49.87
47785;BME280;35233;55.686;37.848;2022-10-16T06:04:09;101193.19;;;15.48;49.68
47785;BME280;35233;55.686;37.848;2022-10-16T06:06:35;101196.75;;;15.47;49.66
47785;BME280;35233;55.686;37.848;2022-10-16T06:09:02;101193.19;;;15.48;49.81
47785;BME280;35233;55.686;37.848;2022-10-16T06:11:30;101198.44;;;15.51;49.86
47785;BME280;35233;55.686;37.848;2022-10-16T06:13:58;101197.28;;;15.63;49.73
47785;BME280;35233;55.686;37.848;2022-10-16T06:16:27;101190.25;;;15.59;49.41
47785;BME280;35233;55.686;37.848;2022-10-16T06:18:54;101202.75;;;15.57;49.77
47785;BME280;35233;55.686;37.848;2022-10-16T06:21:23;101204.50;;;15.58;49.45
47785;BME280;35233;55.686;37.848;2022-10-16T06:23:52;101213.28;;;15.61;49.55
47785;BME280;35233;55.686;37.848;2022-10-16T06:26:20;101207.09;;;15.61;49.60
47785;BME280;35233;55.686;37.848;2022-10-16T06:28:46;101207.06;;;15.62;49.74
47785;BME280;35233;55.686;37.848;2022-10-16T06:31:12;101198.16;;;15.63;49.60
47785;BME280;35233;55.686;37.848;2022-10-16T06:33:39;101197.19;;;15.66;49.72
47785;BME280;35233;55.686;37.848;2022-10-16T06:36:10;101203.41;;;15.67;49.32
47785;BME280;35233;55.686;37.848;2022-10-16T06:38:36;101192.81;;;15.65;49.45
47785;BME280;35233;55.686;37.848;2022-10-16T06:41:02;101201.53;;;15.72;49.68
47785;BME280;35233;55.686;37.848;2022-10-16T06:43:29;101202.41;;;15.72;49.48
47785;BME280;35233;55.686;37.848;2022-10-16T06:45:59;101204.16;;;15.73;49.53
47785;BME280;35233;55.686;37.848;2022-10-16T06:48:25;101202.34;;;15.75;49.28
47785;BME280;35233;55.686;37.848;2022-10-16T06:51:02;101207.59;;;15.78;49.15
47785;BME280;35233;55.686;37.848;2022-10-16T06:53:29;101208.44;;;15.79;49.37
47785;BME280;35233;55.686;37.848;2022-10-16T06:55:56;101199.59;;;15.78;49.24
47785;BME280;35233;55.686;37.848;2022-10-16T06:58:22;101207.50;;;15.81;49.48
47785;BME280;35233;55.686;37.848;2022-10-16T07:00:48;101216.34;;;15.83;49.16
47785;BME280;35233;55.686;37.848;2022-10-16T07:03:14;101214.56;;;15.84;49.08
47785;BME280;35233;55.686;37.848;2022-10-16T07:05:41;101210.06;;;15.86;49.25
47785;BME280;35233;55.686;37.848;2022-10-16T07:08:07;101216.25;;;15.87;49.24
47785;BME280;35233;55.686;37.848;2022-10-16T07:10:34;101217.97;;;15.89;49.21
47785;BME280;35233;55.686;37.848;2022-10-16T07:12:59;101212.59;;;15.91;49.32
47785;BME280;35233;55.686;37.848;2022-10-16T07:15:26;101222.38;;;15.92;49.22
47785;BME280;35233;55.686;37.848;2022-10-16T07:17:52;101204.66;;;15.89;49.07
47785;BME280;35233;55.686;37.848;2022-10-16T07:20:17;101219.63;;;15.95;49.17
47785;BME280;35233;55.686;37.848;2022-10-16T07:22:43;101227.53;;;15.98;49.16
47785;BME280;35233;55.686;37.848;2022-10-16T07:25:09;101223.91;;;16.00;48.97
47785;BME280;35233;55.686;37.848;2022-10-16T07:27:34;101222.06;;;16.02;49.09
47785;BME280;35233;55.686;37.848;2022-10-16T07:30:00;101222.03;;;16.04;49.01
47785;BME280;35233;55.686;37.848;2022-10-16T07:32:26;101223.75;;;16.06;48.99
47785;BME280;35233;55.686;37.848;2022-10-16T07:34:53;101226.38;;;16.08;48.98
47785;BME280;35233;55.686;37.848;2022-10-16T07:37:18;101213.88;;;16.10;48.85
47785;BME280;35233;55.686;37.848;2022-10-16T07:39:44;101208.56;;;16.10;48.84
47785;BME280;35233;55.686;37.848;2022-10-16T07:42:10;101221.72;;;16.16;48.77
47785;BME280;35233;55.686;37.848;2022-10-16T07:44:35;101219.91;;;16.17;48.80
47785;BME280;35233;55.686;37.848;2022-10-16T07:47:01;101218.06;;;16.20;48.94
47785;BME280;35233;55.686;37.848;2022-10-16T07:49:27;101217.16;;;16.20;48.83
47785;BME280;35233;55.686;37.848;2022-10-16T07:51:52;101221.59;;;16.21;48.91
47785;BME280;35233;55.686;37.848;2022-10-16T07:54:18;101222.41;;;16.24;48.64
47785;BME280;35233;55.686;37.848;2022-10-16T07:56:43;101218.84;;;16.24;48.90
47785;BME280;35233;55.686;37.848;2022-10-16T07:59:09;101217.91;;;16.26;48.90
47785;BME280;35233;55.686;37.848;2022-10-16T08:01:34;101210.81;;;16.25;48.80
47785;BME280;35233;55.686;37.848;2022-10-16T08:04:00;101216.13;;;16.27;48.90
47785;BME280;35233;55.686;37.848;2022-10-16T08:06:25;101220.50;;;16.29;48.86
47785;BME280;35233;55.686;37.848;2022-10-16T08:08:51;101225.69;;;16.34;48.89
47785;BME280;35233;55.686;37.848;2022-10-16T08:11:16;101218.56;;;16.35;48.86
47785;BME280;35233;55.686;37.848;2022-10-16T08:13:42;101217.56;;;16.39;48.87
47785;BME280;35233;55.686;37.848;2022-10-16T08:16:08;101213.06;;;16.41;48.74
47785;BME280;35233;55.686;37.848;2022-10-16T08:18:36;101206.94;;;16.37;48.87
47785;BME280;35233;55.686;37.848;2022-10-16T08:21:02;101207.81;;;16.38;48.79
47785;BME280;35233;55.686;37.848;2022-10-16T08:23:32;101222.72;;;16.46;48.47
47785;BME280;35233;55.686;37.848;2022-10-16T08:26:04;101206.81;;;16.42;48.78
47785;BME280;35233;55.686;37.848;2022-10-16T08:28:29;101212.03;;;16.46;48.84
47785;BME280;35233;55.686;37.848;2022-10-16T08:30:55;101218.09;;;16.51;48.74
47785;BME280;35233;55.686;37.848;2022-10-16T08:33:22;101218.97;;;16.52;48.85
47785;BME280;35233;55.686;37.848;2022-10-16T08:35:53;101212.66;;;16.55;48.66
47785;BME280;35233;55.686;37.848;2022-10-16T08:38:20;101214.38;;;16.57;48.82
47785;BME280;35233;55.686;37.848;2022-10-16T08:40:45;101197.59;;;16.53;48.85
47785;BME280;35233;55.686;37.848;2022-10-16T08:44:10;101204.66;;;16.55;48.82
47785;BME280;35233;55.686;37.848;2022-10-16T08:46:42;101208.94;;;16.62;48.78
47785;BME280;35233;55.686;37.848;2022-10-16T08:49:13;101207.13;;;16.62;48.71
47785;BME280;35233;55.686;37.848;2022-10-16T08:51:40;101207.06;;;16.64;48.68
47785;BME280;35233;55.686;37.848;2022-10-16T08:56:56;101204.38;;;16.65;48.90
47785;BME280;35233;55.686;37.848;2022-10-16T08:59:22;101206.94;;;16.68;48.62
47785;BME280;35233;55.686;37.848;2022-10-16T09:01:50;101203.25;;;16.72;48.60
47785;BME280;35233;55.686;37.848;2022-10-16T09:04:23;101203.25;;;16.72;48.58
47785;BME280;35233;55.686;37.848;2022-10-16T09:07:03;101206.84;;;16.71;48.56
47785;BME280;35233;55.686;37.848;2022-10-16T09:09:45;101204.09;;;16.74;48.58
47785;BME280;35233;55.686;37.848;2022-10-16T09:12:19;101203.19;;;16.77;48.69
47785;BME280;35233;55.686;37.848;2022-10-16T09:17:51;101210.03;;;16.86;48.50
47785;BME280;35233;55.686;37.848;2022-10-16T09:20:25;101208.22;;;16.88;48.63
47785;BME280;35233;55.686;37.848;2022-10-16T09:25:31;101204.47;;;16.93;48.59
47785;BME280;35233;55.686;37.848;2022-10-16T09:27:57;101205.34;;;16.94;48.68
47785;BME280;35233;55.686;37.848;2022-10-16T09:30:26;101200.03;;;16.92;48.58
47785;BME280;35233;55.686;37.848;2022-10-16T09:32:54;101203.53;;;16.96;48.55
47785;BME280;35233;55.686;37.848;2022-10-16T09:35:24;101198.19;;;16.96;48.58
47785;BME280;35233;55.686;37.848;2022-10-16T09:37:54;101185.59;;;17.00;48.59
47785;BME280;35233;55.686;37.848;2022-10-16T09:40:26;101190.84;;;17.03;48.49
47785;BME280;35233;55.686;37.848;2022-10-16T09:43:10;101195.16;;;17.07;48.63
47785;BME280;35233;55.686;37.848;2022-10-16T09:45:40;101188.03;;;17.07;48.74
47785;BME280;35233;55.686;37.848;2022-10-16T09:48:13;101188.94;;;17.08;48.57
47785;BME280;35233;55.686;37.848;2022-10-16T09:50:38;101195.06;;;17.10;48.46
47785;BME280;35233;55.686;37.848;2022-10-16T09:55:35;101189.50;;;17.17;48.64
47785;BME280;35233;55.686;37.848;2022-10-16T09:58:01;101188.63;;;17.17;48.55
47785;BME280;35233;55.686;37.848;2022-10-16T10:00:26;101186.97;;;17.13;48.64
47785;BME280;35233;55.686;37.848;2022-10-16T10:02:53;101192.22;;;17.16;48.68
47785;BME280;35233;55.686;37.848;2022-10-16T10:05:26;101187.66;;;17.19;48.71
47785;BME280;35233;55.686;37.848;2022-10-16T10:07:57;101178.81;;;17.17;48.55
47785;BME280;35233;55.686;37.848;2022-10-16T10:10:28;101180.63;;;17.17;48.62
47785;BME280;35233;55.686;37.848;2022-10-16T10:12:55;101178.81;;;17.17;48.16
47785;BME280;35233;55.686;37.848;2022-10-16T10:15:21;101177.03;;;17.18;48.43
47785;BME280;35233;55.686;37.848;2022-10-16T10:17:53;101172.53;;;17.18;48.16
47785;BME280;35233;55.686;37.848;2022-10-16T10:20:58;101178.59;;;17.25;48.53
47785;BME280;35233;55.686;37.848;2022-10-16T10:23:27;101164.41;;;17.23;48.68
47785;BME280;35233;55.686;37.848;2022-10-16T10:26:39;101167.84;;;17.27;48.55
47785;BME280;35233;55.686;37.848;2022-10-16T10:36:39;101172.03;;;17.35;48.21
47785;BME280;35233;55.686;37.848;2022-10-16T10:39:18;101164.88;;;17.36;48.60
47785;BME280;35233;55.686;37.848;2022-10-16T10:47:53;101170.22;;;17.36;48.94
47785;BME280;35233;55.686;37.848;2022-10-16T10:50:17;101159.59;;;17.34;48.25
47785;BME280;35233;55.686;37.848;2022-10-16T10:52:51;101160.47;;;17.35;48.67
47785;BME280;35233;55.686;37.848;2022-10-16T11:01:09;101153.19;;;17.40;48.80
47785;BME280;35233;55.686;37.848;2022-10-16T11:06:40;101154.06;;;17.40;48.55
47785;BME280;35233;55.686;37.848;2022-10-16T11:09:15;101149.44;;;17.46;48.69
47785;BME280;35233;55.686;37.848;2022-10-16T11:14:30;101149.91;;;17.58;48.52
47785;BME280;35233;55.686;37.848;2022-10-16T11:22:11;101141.84;;;17.60;48.54
47785;BME280;35233;55.686;37.848;2022-10-16T11:24:51;101139.34;;;17.82;47.74
47785;BME280;35233;55.686;37.848;2022-10-16T11:27:43;101142.66;;;17.62;48.29
47785;BME280;35233;55.686;37.848;2022-10-16T11:30:30;101135.00;;;17.51;48.46
47785;BME280;35233;55.686;37.848;2022-10-16T11:36:07;101135.88;;;17.52;48.55
47785;BME280;35233;55.686;37.848;2022-10-16T11:38:34;101127.03;;;17.50;48.63
47785;BME280;35233;55.686;37.848;2022-10-16T11:47:12;101127.88;;;17.52;48.66
47785;BME280;35233;55.686;37.848;2022-10-16T11:49:39;101130.56;;;17.50;48.53
47785;BME280;35233;55.686;37.848;2022-10-16T11:55:21;101124.50;;;17.45;48.56
47785;BME280;35233;55.686;37.848;2022-10-16T11:57:57;101128.94;;;17.46;48.62
47785;BME280;35233;55.686;37.848;2022-10-16T12:00:28;101124.34;;;17.50;48.69
47785;BME280;35233;55.686;37.848;2022-10-16T12:03:22;101127.03;;;17.50;48.52
47785;BME280;35233;55.686;37.848;2022-10-16T12:08:54;101122.66;;;17.47;48.70
47785;BME280;35233;55.686;37.848;2022-10-16T12:16:59;101126.19;;;17.48;48.87
47785;BME280;35233;55.686;37.848;2022-10-16T12:19:28;101119.13;;;17.47;48.55
47785;BME280;35233;55.686;37.848;2022-10-16T12:21:57;101124.41;;;17.48;49.14
47785;BME280;35233;55.686;37.848;2022-10-16T12:24:33;101127.97;;;17.49;49.07
47785;BME280;35233;55.686;37.848;2022-10-16T12:27:00;101120.97;;;17.45;48.91
47785;BME280;35233;55.686;37.848;2022-10-16T12:29:32;101122.72;;;17.46;48.93
47785;BME280;35233;55.686;37.848;2022-10-16T12:31:59;101118.28;;;17.45;48.74
47785;BME280;35233;55.686;37.848;2022-10-16T12:34:42;101122.84;;;17.42;48.94
47785;BME280;35233;55.686;37.848;2022-10-16T12:37:26;101120.16;;;17.42;48.96
47785;BME280;35233;55.686;37.848;2022-10-16T12:39:54;101108.56;;;17.42;48.75
47785;BME280;35233;55.686;37.848;2022-10-16T12:44:48;101105.97;;;17.40;49.06
47785;BME280;35233;55.686;37.848;2022-10-16T12:49:58;101105.09;;;17.40;49.21
47785;BME280;35233;55.686;37.848;2022-10-16T12:54:56;101105.09;;;17.40;49.07
47785;BME280;35233;55.686;37.848;2022-10-16T13:06:00;101114.13;;;17.36;49.35
47785;BME280;35233;55.686;37.848;2022-10-16T13:19:26;101094.72;;;17.31;49.15
47785;BME280;35233;55.686;37.848;2022-10-16T13:22:03;101108.69;;;17.39;49.25
47785;BME280;35233;55.686;37.848;2022-10-16T13:25:05;101105.09;;;17.40;49.28
47785;BME280;35233;55.686;37.848;2022-10-16T13:30:31;101106.00;;;17.39;49.34
47785;BME280;35233;55.686;37.848;2022-10-16T13:33:10;101105.09;;;17.40;49.07
47785;BME280;35233;55.686;37.848;2022-10-16T13:35:51;101105.09;;;17.40;49.30
47785;BME280;35233;55.686;37.848;2022-10-16T13:38:19;101112.19;;;17.41;49.48
47785;BME280;35233;55.686;37.848;2022-10-16T13:41:00;101105.91;;;17.42;49.32
47785;BME280;35233;55.686;37.848;2022-10-16T13:43:34;101104.13;;;17.42;49.49
47785;BME280;35233;55.686;37.848;2022-10-16T13:46:04;101111.22;;;17.43;49.58
47785;BME280;35233;55.686;37.848;2022-10-16T13:48:31;101104.94;;;17.45;49.53
47785;BME280;35233;55.686;37.848;2022-10-16T13:51:04;101103.22;;;17.42;49.62
47785;BME280;35233;55.686;37.848;2022-10-16T13:53:34;101102.53;;;17.37;49.42
47785;BME280;35233;55.686;37.848;2022-10-16T13:56:03;101103.59;;;17.31;49.74
47785;BME280;35233;55.686;37.848;2022-10-16T13:58:29;101101.91;;;17.29;49.63
47785;BME280;35233;55.686;37.848;2022-10-16T14:00:59;101104.63;;;17.27;49.67
47785;BME280;35233;55.686;37.848;2022-10-16T14:03:26;101102.97;;;17.23;49.80
47785;BME280;35233;55.686;37.848;2022-10-16T14:05:58;101117.25;;;17.22;49.86
47785;BME280;35233;55.686;37.848;2022-10-16T14:08:25;101111.09;;;17.20;49.90
47785;BME280;35233;55.686;37.848;2022-10-16T14:10:57;101109.44;;;17.16;50.00
47785;BME280;35233;55.686;37.848;2022-10-16T14:13:34;101104.16;;;17.14;50.06
47785;BME280;35233;55.686;37.848;2022-10-16T14:16:09;101092.81;;;17.08;50.23
47785;BME280;35233;55.686;37.848;2022-10-16T14:18:37;101096.34;;;17.08;50.27
47785;BME280;35233;55.686;37.848;2022-10-16T14:21:10;101093.78;;;17.05;50.36
47785;BME280;35233;55.686;37.848;2022-10-16T14:23:38;101107.16;;;17.04;50.43
47785;BME280;35233;55.686;37.848;2022-10-16T14:28:40;101106.38;;;17.00;50.62
47785;BME280;35233;55.686;37.848;2022-10-16T14:31:29;101102.00;;;16.97;50.60
47785;BME280;35233;55.686;37.848;2022-10-16T14:33:55;101101.28;;;16.92;50.57
47785;BME280;35233;55.686;37.848;2022-10-16T14:36:21;101105.72;;;16.93;50.74
47785;BME280;35233;55.686;37.848;2022-10-16T14:41:26;101106.78;;;16.88;50.79
47785;BME280;35233;55.686;37.848;2022-10-16T14:43:57;101114.72;;;16.89;50.76